Flight Track Log - Related Links

Times and Time Zones

All times are in EST time to prevent confusion due to time zone crossing. See the AVN10 flight status page for this flight to view local times or setup timezone preferences in your user account.

Time Position Orientation Groundspeed Altitude Reporting Facility
EST Latitude Longitude Course Direction KTS MPH feet Rate Location/Type
Thu 03:09:00 PM -18.0113 168.1608 206° Southwest  Level FlightAware Approximate
Thu 03:10:00 PM -18.1153 168.1077 206° Southwest  Level FlightAware Approximate
Thu 03:11:00 PM -18.2193 168.0545 206° Southwest  Level FlightAware Approximate
Thu 03:12:00 PM -18.3232 168.0013 206° Southwest  Level FlightAware Approximate
Thu 03:13:00 PM -18.4271 167.9480 206° Southwest  Level FlightAware Approximate
Thu 03:14:00 PM -18.5148 167.8685 204° Southwest  Level Estimated
Thu 03:15:00 PM -18.6206 167.8195 204° Southwest  Level FlightAware Approximate
Thu 03:16:00 PM -18.7264 167.7704 204° Southwest  Level FlightAware Approximate
Thu 03:17:00 PM -18.8322 167.7212 204° Southwest  Level FlightAware Approximate
Thu 03:18:00 PM -18.9380 167.6719 204° Southwest  Level FlightAware Approximate
Thu 03:19:00 PM -19.0437 167.6226 204° Southwest  Level FlightAware Approximate
Thu 03:20:00 PM -19.1495 167.5732 204° Southwest  Level FlightAware Approximate
Thu 03:21:00 PM -19.2552 167.5238 204° Southwest  Level FlightAware Approximate
Thu 03:22:00 PM -19.3610 167.4743 204° Southwest  Level FlightAware Approximate
Thu 03:23:00 PM -19.4667 167.4247 204° Southwest  Level FlightAware Approximate
Thu 03:24:00 PM -19.5724 167.3751 204° Southwest  Level FlightAware Approximate
Thu 03:25:00 PM -19.6780 167.3254 204° Southwest  Level FlightAware Approximate
Thu 03:26:00 PM -19.7837 167.2756 204° Southwest  Level FlightAware Approximate
Thu 03:27:00 PM -19.8894 167.2258 204° Southwest  Level FlightAware Approximate
Thu 03:28:00 PM -19.9950 167.1759 204° Southwest  Level FlightAware Approximate
Thu 03:29:00 PM -20.1006 167.1259 204° Southwest  Level FlightAware Approximate
Thu 03:30:00 PM -20.2062 167.0759 204° Southwest  Level FlightAware Approximate
Thu 03:31:00 PM -20.3118 167.0258 204° Southwest  Level FlightAware Approximate
Thu 03:32:00 PM -20.4174 166.9756 204° Southwest  Level FlightAware Approximate
Thu 03:33:00 PM -20.5230 166.9254 204° Southwest  Level FlightAware Approximate
Thu 03:34:00 PM -20.6286 166.8751 204° Southwest  Level FlightAware Approximate
Thu 03:35:00 PM -20.7341 166.8247 204° Southwest  Level FlightAware Approximate
Thu 03:36:00 PM -20.8396 166.7742 204° Southwest  Level FlightAware Approximate
Thu 03:37:00 PM -20.9452 166.7237 204° Southwest  Level FlightAware Approximate
Thu 03:37:27 PM -20.8000 166.7860 216° Southwest 431 496 32,000  Level FlightAware ADS-B
Thu 03:38:00 PM -21.0292 166.6388 224° Southwest  Level Estimated
Thu 03:38:24 PM -20.9020 166.7370 204° Southwest 432 497 32,000  Level FlightAware ADS-B
Thu 03:39:00 PM -21.1222 166.5652 216° Southwest  Level FlightAware Approximate
Thu 03:39:00 PM -20.9730 166.7040 203° Southwest 433 498 32,000  Level FlightAware ADS-B
Thu 03:39:42 PM -21.0500 166.6670 204° Southwest 434 499 32,000  Level FlightAware ADS-B
Thu 03:40:15 PM -21.1100 166.6390 204° Southwest 433 498 32,000  Level FlightAware ADS-B
Thu 03:40:47 PM -21.1680 166.6110 204° Southwest 434 499 32,000  Level FlightAware ADS-B
Thu 03:41:20 PM -21.2300 166.5820 204° Southwest 433 498 32,000  Level FlightAware ADS-B
Thu 03:41:50 PM -21.2850 166.5560 204° Southwest 433 498 32,000  Level FlightAware ADS-B
Thu 03:42:28 PM -21.3550 166.5230 204° Southwest 434 499 32,000  Level FlightAware ADS-B
Thu 03:43:36 PM -21.4810 166.4630 204° Southwest 435 501 32,000  Level FlightAware ADS-B
Thu 03:44:29 PM -21.5790 166.4160 204° Southwest 436 502 32,000  Level FlightAware ADS-B
Thu 03:45:30 PM -21.6910 166.3630 204° Southwest 437 503 32,000  Level FlightAware ADS-B
Thu 03:46:22 PM -21.7870 166.3160 204° Southwest 436 502 32,000  Level FlightAware ADS-B
Thu 03:46:48 PM -21.8360 166.2930 204° Southwest 435 501 32,000  Level FlightAware ADS-B
Thu 03:47:45 PM -21.9400 166.2430 204° Southwest 435 501 32,000  Level FlightAware ADS-B
Thu 03:48:14 PM -21.9930 166.2150 206° Southwest 428 493 32,000  Level FlightAware ADS-B
Thu 03:48:46 PM -22.0420 166.1740 218° Southwest 420 483 32,000  Level FlightAware ADS-B
Thu 03:49:18 PM -22.0870 166.1270 224° Southwest 421 484 32,000  Level FlightAware ADS-B
Thu 03:50:14 PM -22.1650 166.0450 224° Southwest 422 486 32,000  Level FlightAware ADS-B
Thu 03:50:41 PM -22.2030 166.0050 224° Southwest 422 486 32,000  Level FlightAware ADS-B
Thu 03:51:19 PM -22.2560 165.9490 224° Southwest 423 487 32,000  Level FlightAware ADS-B
Thu 03:52:22 PM -22.3450 165.8550 224° Southwest 423 487 32,000  Level FlightAware ADS-B
Thu 03:52:51 PM -22.3860 165.8130 223° Southwest 425 489 32,000  Level FlightAware ADS-B
Thu 03:53:22 PM -22.4300 165.7660 225° Southwest 424 488 32,000  Level FlightAware ADS-B
Thu 03:53:54 PM -22.4750 165.7190 224° Southwest 426 490 32,000  Level FlightAware ADS-B
Thu 03:54:23 PM -22.5160 165.6760 224° Southwest 427 491 32,000  Level FlightAware ADS-B
Thu 03:54:58 PM -22.5640 165.6250 224° Southwest 427 491 32,000  Level FlightAware ADS-B
Thu 03:55:37 PM -22.6210 165.5640 225° Southwest 428 493 32,000  Level FlightAware ADS-B
Thu 03:56:07 PM -22.6630 165.5200 224° Southwest 430 495 32,000  Level FlightAware ADS-B
Thu 03:56:48 PM -22.7200 165.4590 225° Southwest 432 497 32,000  Level FlightAware ADS-B
Thu 03:57:28 PM -22.7740 165.4020 224° Southwest 432 497 32,000  Level FlightAware ADS-B
Thu 03:57:59 PM -22.8230 165.3500 224° Southwest 432 497 32,000  Level FlightAware ADS-B
Thu 03:58:34 PM -22.8730 165.2970 224° Southwest 432 497 32,000  Level FlightAware ADS-B
Thu 03:59:04 PM -22.9160 165.2520 224° Southwest 432 497 32,000  Level FlightAware ADS-B
Thu 03:59:47 PM -22.9770 165.1860 225° Southwest 432 497 32,000  Level FlightAware ADS-B
Thu 04:00:43 PM -23.0560 165.1020 224° Southwest 433 498 32,000  Level FlightAware ADS-B
Thu 04:01:22 PM -23.1050 165.0500 224° Southwest 434 499 32,000  Level FlightAware ADS-B
Thu 04:01:46 PM -23.1340 165.0200 224° Southwest 434 499 32,000  Level FlightAware ADS-B
Thu 04:02:23 PM -23.1800 164.9720 224° Southwest 434 499 32,000  Level FlightAware ADS-B
Thu 04:02:59 PM -23.2240 164.9250 224° Southwest 434 499 32,000  Level FlightAware ADS-B
Thu 04:03:35 PM -23.2680 164.8790 224° Southwest 434 499 32,000  Level FlightAware ADS-B
Thu 04:04:35 PM -23.3420 164.8010 224° Southwest 434 499 32,000  Level FlightAware ADS-B
Thu 04:04:59 PM -23.3710 164.7700 224° Southwest 434 499 32,000  Level FlightAware ADS-B
Thu 04:05:35 PM -23.4150 164.7240 224° Southwest 434 499 32,000  Level FlightAware ADS-B
Thu 04:06:11 PM -23.4600 164.6770 224° Southwest 434 499 32,000  Level FlightAware ADS-B
Thu 04:06:47 PM -23.5040 164.6310 224° Southwest 434 499 32,000  Level FlightAware ADS-B
Thu 04:07:47 PM -23.5770 164.5530 224° Southwest 434 499 32,000  Level FlightAware ADS-B
Thu 04:08:25 PM -23.6240 164.5040 224° Southwest 434 499 32,000  Level FlightAware ADS-B
Thu 04:08:47 PM -23.6510 164.4760 224° Southwest 434 499 32,000  Level FlightAware ADS-B
Thu 04:10:00 PM -23.7410 164.3810 224° Southwest 434 499 32,000  Level FlightAware ADS-B
Thu 04:10:24 PM -23.7700 164.3500 224° Southwest 434 499 32,000  Level FlightAware ADS-B
Thu 04:10:47 PM -23.7980 164.3200 224° Southwest 434 499 32,000 57 Level FlightAware ADS-B
Thu 04:14:00 PM -24.0596 164.0310 225° Southwest  Level FlightAware Approximate
Thu 04:15:00 PM -24.1409 163.9409 225° Southwest  Level FlightAware Approximate
Thu 04:16:00 PM -24.2220 163.8507 225° Southwest  Level FlightAware Approximate
Thu 04:17:00 PM -24.3032 163.7604 225° Southwest  Level FlightAware Approximate
Thu 04:18:00 PM -24.3842 163.6700 225° Southwest  Level FlightAware Approximate
Thu 04:19:00 PM -24.4652 163.5794 225° Southwest  Level FlightAware Approximate
Thu 04:19:15 PM -24.5857 163.4370 222° Southwest 36,000  Level Aus ATC (Calculated)
Thu 04:19:37 PM -24.6440 163.3724 222° Southwest 36,000 Level Aus ATC (Calculated)
Thu 04:21:00 PM -24.7562 163.2483 225° Southwest  Level FlightAware Approximate
Thu 04:22:00 PM -24.8373 163.1584 225° Southwest  Level FlightAware Approximate
Thu 04:22:37 PM -24.9304 163.0533 222° Southwest 36,000  Level Aus ATC (Calculated)
Thu 04:23:00 PM -24.9183 163.0685 225° Southwest  Level FlightAware Approximate
Thu 04:23:00 PM -24.9831 162.9944 222° Southwest 36,000  Level Aus ATC (Calculated)
Thu 04:24:00 PM -24.9210 163.1011 57° Northeast  Level FlightAware Approximate
Thu 04:25:00 PM -24.9831 162.9944 237° Southwest  Level FlightAware Approximate
Thu 04:25:18 PM -25.2391 162.7070 222° Southwest 36,000  Level Aus ATC (Calculated)
Thu 04:26:15 PM -25.3346 162.5993 222° Southwest 36,000 Level Aus ATC (Calculated)
Thu 04:26:24 PM -25.3346 162.5993 222° Southwest 36,000 Level Aus ATC (Calculated)
Thu 04:28:00 PM -25.4584 162.4555 225° Southwest  Level Estimated
Thu 04:29:00 PM -25.5368 162.3667 226° Southwest  Level FlightAware Approximate
Thu 04:30:00 PM -25.6152 162.2778 226° Southwest  Level FlightAware Approximate
Thu 04:31:00 PM -25.6935 162.1888 226° Southwest  Level FlightAware Approximate
Thu 04:31:04 PM -25.7962 162.0750 221° Southwest 36,000  Level Aus ATC (Calculated)
Thu 04:31:34 PM -25.8351 162.0306 221° Southwest 36,000 Level Aus ATC (Calculated)
Thu 04:33:00 PM -25.9470 161.9024 226° Southwest  Level FlightAware Approximate
Thu 04:34:00 PM -26.0251 161.8129 226° Southwest  Level FlightAware Approximate
Thu 04:35:00 PM -26.1030 161.7232 226° Southwest  Level FlightAware Approximate
Thu 04:36:00 PM -26.1810 161.6334 226° Southwest  Level FlightAware Approximate
Thu 04:37:00 PM -26.2588 161.5434 226° Southwest  Level FlightAware Approximate
Thu 04:38:00 PM -26.3366 161.4534 226° Southwest  Level FlightAware Approximate
Thu 04:39:00 PM -26.4144 161.3632 226° Southwest  Level FlightAware Approximate
Thu 04:40:00 PM -26.4921 161.2729 226° Southwest  Level FlightAware Approximate
Thu 04:41:00 PM -26.5697 161.1825 226° Southwest  Level FlightAware Approximate
Thu 04:42:00 PM -26.6473 161.0920 226° Southwest  Level FlightAware Approximate
Thu 04:43:00 PM -26.7248 161.0013 226° Southwest  Level FlightAware Approximate
Thu 04:44:00 PM -26.8022 160.9105 226° Southwest  Level FlightAware Approximate
Thu 04:45:00 PM -26.8796 160.8196 226° Southwest  Level FlightAware Approximate
Thu 04:45:59 PM -27.2031 160.4376 219° Southwest 36,000  Level Aus ATC (Calculated)
Thu 04:46:00 PM -26.9570 160.7286 226° Southwest  Level FlightAware Approximate
Thu 04:47:00 PM -27.2815 160.3445 227° Southwest  Level FlightAware Approximate
Thu 04:47:59 PM -27.4011 160.2021 219° Southwest 36,000  Level Aus ATC (Calculated)
Thu 04:48:00 PM -27.3585 160.2528 227° Southwest  Level FlightAware Approximate
Thu 04:49:00 PM -27.4793 160.1087 227° Southwest  Level FlightAware Approximate
Thu 04:49:59 PM -27.6151 159.9460 218° Southwest 36,000  Level Aus ATC (Calculated)
Thu 04:50:00 PM -27.5562 160.0166 227° Southwest  Level FlightAware Approximate
Thu 04:51:00 PM -27.6330 159.9245 227° Southwest  Level FlightAware Approximate
Thu 04:52:00 PM -27.7699 159.7599 227° Southwest  Level FlightAware Approximate
Thu 04:52:18 PM -27.8153 159.7050 217° Southwest 36,000  Level Aus ATC (Calculated)
Thu 04:52:53 PM -27.8703 159.6386 217° Southwest 36,000 Level Aus ATC (Calculated)
Thu 04:54:00 PM -27.9558 159.5351 227° Southwest  Level FlightAware Approximate
Thu 04:54:38 PM -28.0144 159.4640 216° Southwest 36,000  Level Aus ATC (Calculated)
Thu 04:55:00 PM -28.0323 159.4423 227° Southwest  Level FlightAware Approximate
Thu 04:56:00 PM -28.1189 159.3369 227° Southwest  Level FlightAware Approximate
Thu 04:56:33 PM -28.1943 159.2450 215° Southwest 36,000  Level Aus ATC (Calculated)
Thu 04:58:00 PM -28.3146 159.0979 227° Southwest  Level FlightAware Approximate
Thu 04:59:00 PM -28.2317 159.1994 47° Northeast  Level FlightAware Approximate
Thu 05:00:00 PM -28.3146 159.0979 227° Southwest  Level FlightAware Approximate
Thu 05:00:23 PM -28.5397 158.8210 211° Southwest 36,000  Level Aus ATC (Calculated)
Thu 05:01:00 PM -28.2317 159.1994 47° Northeast  Level FlightAware Approximate
Thu 05:02:00 PM -28.4060 158.9857 47° Northeast  Level FlightAware Approximate
Thu 05:03:00 PM -28.3232 159.0873 47° Northeast  Level FlightAware Approximate
Thu 05:04:00 PM -28.2403 159.1888 47° Northeast  Level FlightAware Approximate
Thu 05:05:00 PM -28.3232 159.0873 227° Southwest  Level FlightAware Approximate
Thu 05:05:17 PM -28.9458 158.3166 202° Southwest 36,000  Level Aus ATC (Calculated)
Thu 05:05:33 PM -28.9863 158.2659 201° Southwest 36,000 Level Aus ATC (Calculated)
Thu 05:07:00 PM -28.8671 158.4149 48° Northeast  Level FlightAware Approximate
Thu 05:08:00 PM -28.7847 158.5175 48° Northeast  Level FlightAware Approximate
Thu 05:09:00 PM -28.7023 158.6198 47° Northeast  Level FlightAware Approximate
Thu 05:10:00 PM -28.7828 158.5155 227° Southwest  Level Estimated
Thu 05:10:17 PM -29.3500 157.8083 174° South 36,000  Level Aus ATC (Calculated)
Thu 05:12:00 PM -29.4904 157.6302 228° Southwest  Level FlightAware Approximate
Thu 05:12:44 PM -29.5916 157.5014 133° Southeast 36,000  Level Aus ATC (Calculated)
Thu 05:14:00 PM -29.6950 157.3694 228° Southwest  Level FlightAware Approximate
Thu 05:15:00 PM -29.7764 157.2650 228° Southwest  Level FlightAware Approximate
Thu 05:15:16 PM -29.7924 157.2445 100° East 36,000  Level Aus ATC (Calculated)
Thu 05:16:00 PM -29.8578 157.1605 228° Southwest  Level FlightAware Approximate
Thu 05:17:00 PM -29.9334 157.0631 228° Southwest  Level FlightAware Approximate
Thu 05:18:00 PM -30.0147 156.9582 228° Southwest  Level FlightAware Approximate
Thu 05:19:00 PM -30.0958 156.8532 228° Southwest  Level FlightAware Approximate
Thu 05:20:00 PM -30.1769 156.7480 228° Southwest  Level FlightAware Approximate
Thu 05:20:15 PM -30.1925 156.7277 73° East 36,000  Level Aus ATC (Calculated)
Thu 05:21:50 PM -29.8842 157.8696 228° Southwest 432 497 36,100 50 Climbing Aus ATC (RADAR)
Thu 05:22:15 PM -29.9241 157.8318 219° Southwest 440 506 36,100  Level Aus ATC (RADAR)
Thu 05:22:50 PM -29.9786 157.7795 220° Southwest 439 505 36,100  Level Aus ATC (RADAR)
Thu 05:23:35 PM -30.0498 157.7118 219° Southwest 440 506 36,100  Level Aus ATC (RADAR)
Thu 05:24:10 PM -30.1046 157.6593 220° Southwest 440 506 36,100  Level Aus ATC (RADAR)
Thu 05:25:00 PM -30.1821 157.5853 220° Southwest 437 503 36,100  Level Aus ATC (RADAR)
Thu 05:25:15 PM -30.2050 157.5631 220° Southwest 436 502 36,100  Level Aus ATC (RADAR)
Thu 05:25:50 PM -30.2611 157.5093 220° Southwest 440 506 36,100  Level Aus ATC (RADAR)
Thu 05:27:05 PM -30.3786 157.3965 220° Southwest 439 505 36,100  Level Aus ATC (RADAR)
Thu 05:27:30 PM -30.4162 157.3607 219° Southwest 434 499 36,100  Level Aus ATC (RADAR)
Thu 05:27:59 PM -30.4643 157.3146 220° Southwest 437 503 36,100  Level Aus ATC (RADAR)
Thu 05:28:44 PM -30.5363 157.2456 220° Southwest 443 510 36,100  Level Aus ATC (RADAR)
Thu 05:29:19 PM -30.5899 157.1936 220° Southwest 439 505 36,100  Level Aus ATC (RADAR)
Thu 05:30:05 PM -30.6557 157.1292 220° Southwest 427 491 36,100  Level Aus ATC (RADAR)
Thu 05:30:29 PM -30.6947 157.0911 220° Southwest 431 496 36,100  Level Aus ATC (RADAR)
Thu 05:31:04 PM -30.7496 157.0376 220° Southwest 438 504 36,100  Level Aus ATC (RADAR)
Thu 05:32:19 PM -30.8664 156.9242 220° Southwest 438 504 36,100  Level Aus ATC (RADAR)
Thu 05:32:49 PM -30.9131 156.8791 220° Southwest 437 503 36,100  Level Aus ATC (RADAR)
Thu 05:33:24 PM -30.9669 156.8266 220° Southwest 435 501 36,100  Level Aus ATC (RADAR)
Thu 05:34:14 PM -31.0432 156.7518 220° Southwest 431 496 36,100  Level Aus ATC (RADAR)
Thu 05:34:49 PM -31.0966 156.6995 220° Southwest 431 496 36,100  Level Aus ATC (RADAR)
Thu 05:35:39 PM -31.1729 156.6248 220° Southwest 430 495 36,100  Level Aus ATC (RADAR)
Thu 05:35:54 PM -31.1959 156.6023 220° Southwest 430 495 36,100 944 Level Aus ATC (RADAR)
Thu 05:37:08 PM -31.3082 156.4912 220° Southwest 421 484 37,500 1,152 Climbing Aus ATC (RADAR)
Thu 05:37:33 PM -31.3439 156.4560 220° Southwest 412 474 38,000 720 Climbing Aus ATC (RADAR)
Thu 05:37:58 PM -31.3794 156.4209 220° Southwest 405 466 38,100 100 Climbing Aus ATC (RADAR)
Thu 05:38:33 PM -31.4300 156.3708 220° Southwest 407 468 38,100  Level Aus ATC (RADAR)
Thu 05:39:28 PM -31.5121 156.2899 220° Southwest 419 482 38,100 -66 Level Aus ATC (RADAR)
Thu 05:40:04 PM -31.5656 156.2372 220° Southwest 427 491 38,000 -71 Descending Aus ATC (RADAR)
Thu 05:40:53 PM -31.6418 156.1612 220° Southwest 432 497 38,000  Level Aus ATC (RADAR)
Thu 05:41:18 PM -31.6802 156.1228 220° Southwest 434 499 38,000  Level Aus ATC (RADAR)
Thu 05:42:23 PM -31.7800 156.0233 220° Southwest 435 501 38,000  Level Aus ATC (RADAR)
Thu 05:42:48 PM -31.8180 155.9850 221° Southwest 434 499 38,000  Level Aus ATC (RADAR)
Thu 05:43:23 PM -31.8718 155.9310 220° Southwest 436 502 38,000  Level Aus ATC (RADAR)
Thu 05:44:08 PM -31.9413 155.8612 220° Southwest 438 504 38,000  Level Aus ATC (RADAR)
Thu 05:44:43 PM -31.9963 155.8070 220° Southwest 441 507 38,000  Level Aus ATC (RADAR)
Thu 05:45:18 PM -32.0503 155.7529 220° Southwest 440 506 38,000  Level Aus ATC (RADAR)
Thu 05:45:53 PM -32.1034 155.6990 221° Southwest 438 504 38,000  Level Aus ATC (RADAR)
Thu 05:46:33 PM -32.1646 155.6368 221° Southwest 437 503 38,000  Level Aus ATC (RADAR)
Thu 05:47:02 PM -32.2020 155.5990 221° Southwest 438 504 38,000  Level FlightAware ADS-B
Thu 05:47:45 PM -32.2700 155.5300 221° Southwest 440 506 38,000  Level FlightAware ADS-B
Thu 05:47:47 PM -32.2795 155.5206 220° Southwest 437 503 38,000  Level Aus ATC (RADAR)
Thu 05:48:02 PM -32.3028 155.4968 221° Southwest 438 504 38,000  Level Aus ATC (RADAR)
Thu 05:48:15 PM -32.3080 155.4910 221° Southwest 442 509 38,000  Level FlightAware ADS-B
Thu 05:48:37 PM -32.3577 155.4408 221° Southwest 442 509 38,000  Level Aus ATC (RADAR)
Thu 05:49:25 PM -32.4260 155.3720 221° Southwest 444 511 38,000  Level FlightAware ADS-B
Thu 05:49:27 PM -32.4356 155.3618 221° Southwest 444 511 38,000  Level Aus ATC (RADAR)
Thu 05:49:54 PM -32.4630 155.3330 221° Southwest 441 507 38,000  Level FlightAware ADS-B
Thu 05:50:02 PM -32.4900 155.3063 221° Southwest 444 511 38,000  Level Aus ATC (RADAR)
Thu 05:50:47 PM -32.5560 155.2389 221° Southwest 432 497 38,000  Level Aus ATC (RADAR)
Thu 05:51:05 PM -32.5770 155.2170 221° Southwest 432 497 38,000  Level FlightAware ADS-B
Thu 05:51:12 PM -32.5934 155.2002 221° Southwest 430 495 38,000  Level Aus ATC (RADAR)
Thu 05:51:57 PM -32.6540 155.1380 221° Southwest 430 495 38,000  Level FlightAware ADS-B
Thu 05:52:45 PM -32.7260 155.0640 221° Southwest 432 497 38,000  Level FlightAware ADS-B
Thu 05:52:47 PM -32.7358 155.0540 221° Southwest 430 495 38,000  Level Aus ATC (RADAR)
Thu 05:53:30 PM -32.7950 154.9930 221° Southwest 440 506 38,000  Level FlightAware ADS-B
Thu 05:53:52 PM -32.8351 154.9514 221° Southwest 440 506 38,000  Level Aus ATC (RADAR)
Thu 05:54:00 PM -32.8350 154.9490 221° Southwest 438 504 38,000  Level FlightAware ADS-B
Thu 05:54:32 PM -32.8854 154.8763 221° Southwest 443 510 38,000  Level Aus ATC (RADAR)
Thu 05:54:32 PM -32.8800 154.8820 231° Southwest 430 495 38,000  Level FlightAware ADS-B
Thu 05:54:56 PM -32.9060 154.8340 231° Southwest 430 495 38,000  Level FlightAware ADS-B
Thu 05:55:07 PM -32.9214 154.8059 231° Southwest 432 497 38,000  Level Aus ATC (RADAR)
Thu 05:55:51 PM -32.9640 154.7250 238° Southwest 431 496 38,000  Level FlightAware ADS-B
Thu 05:55:56 PM -32.9742 154.7060 231° Southwest 429 494 38,000  Level Aus ATC (RADAR)
Thu 05:56:12 PM -32.9899 154.6759 238° Southwest 429 494 38,000  Level Aus ATC (RADAR)
Thu 05:56:46 PM -33.0200 154.6200 238° Southwest 433 498 38,000 87 Level FlightAware ADS-B
Thu 05:57:21 PM -33.0653 154.5346 238° Southwest 434 499 38,100  Climbing Aus ATC (RADAR)
Thu 05:57:37 PM -33.0790 154.5090 238° Southwest 435 501 38,000  Descending FlightAware ADS-B
Thu 05:57:46 PM -33.0920 154.4841 238° Southwest 433 498 38,100 154 Climbing Aus ATC (RADAR)
Thu 05:58:16 PM -33.1230 154.4229 238° Southwest 432 497 38,100 -188 Level Aus ATC (RADAR)
Thu 05:58:18 PM -33.1210 154.4290 238° Southwest 436 502 38,000 -194 Descending FlightAware ADS-B
Thu 05:58:47 PM -33.1530 154.3680 238° Southwest 438 504 38,000 182 Level FlightAware ADS-B
Thu 05:58:51 PM -33.1624 154.3521 238° Southwest 437 503 38,100 122 Climbing Aus ATC (RADAR)
Thu 05:59:36 PM -33.2104 154.2603 238° Southwest 436 502 38,100 -115 Level Aus ATC (RADAR)
Thu 05:59:43 PM -33.2130 154.2550 238° Southwest 438 504 38,000 -113 Descending FlightAware ADS-B
Thu 06:00:29 PM -33.2640 154.1580 238° Southwest 439 505 38,000 68 Level FlightAware ADS-B
Thu 06:01:11 PM -33.3131 154.0654 238° Southwest 438 504 38,100  Climbing Aus ATC (RADAR)
Thu 06:01:19 PM -33.3170 154.0570 238° Southwest 440 506 38,000  Descending FlightAware ADS-B
Thu 06:01:28 PM -33.3307 154.0311 238° Southwest 424 488 38,100  Climbing Aus ATC (RADAR)
Thu 06:02:13 PM -33.3750 153.9460 238° Southwest 437 503 38,000  Descending FlightAware ADS-B
Thu 06:02:41 PM -33.4093 153.8809 238° Southwest 435 501 38,100  Climbing Aus ATC (RADAR)
Thu 06:02:45 PM -33.4100 153.8790 238° Southwest 437 503 38,000  Descending FlightAware ADS-B
Thu 06:03:06 PM -33.4359 153.8295 238° Southwest 437 503 38,100  Climbing Aus ATC (RADAR)
Thu 06:03:14 PM -33.4410 153.8190 238° Southwest 437 503 38,000  Descending FlightAware ADS-B
Thu 06:03:43 PM -33.4741 153.7544 238° Southwest 421 484 38,100  Climbing Aus ATC (RADAR)
Thu 06:03:49 PM -33.4770 153.7490 238° Southwest 436 502 38,000  Descending FlightAware ADS-B
Thu 06:04:31 PM -33.5260 153.6555 238° Southwest 437 503 38,100  Climbing Aus ATC (RADAR)
Thu 06:04:41 PM -33.5320 153.6450 238° Southwest 436 502 38,000 -105 Descending FlightAware ADS-B
Thu 06:05:28 PM -33.5830 153.5450 239° Southwest 436 502 38,000 78 Level FlightAware ADS-B
Thu 06:05:58 PM -33.6175 153.4777 239° Southwest 423 487 38,100 133 Climbing Aus ATC (RADAR)
Thu 06:06:13 PM -33.6341 153.4473 237° Southwest 423 487 38,100 -400 Level Aus ATC (RADAR)
Thu 06:06:13 PM -33.6320 153.4500 237° Southwest 437 503 38,000 -222 Descending FlightAware ADS-B
Thu 06:06:40 PM -33.6590 153.3990 237° Southwest 437 503 38,000 -486 Level FlightAware ADS-B
Thu 06:06:50 PM -33.6750 153.3680 237° Southwest 437 503 37,700 -1,700 Descending Aus ATC (RADAR)
Thu 06:07:40 PM -33.7210 153.2780 227° Southwest 418 481 36,300 -1,759 Descending FlightAware ADS-B
Thu 06:07:48 PM -33.7322 153.2552 237° Southwest 411 473 36,000 -2,182 Descending Aus ATC (RADAR)
Thu 06:08:13 PM -33.7645 153.2129 227° Southwest 400 460 35,100 -2,143 Descending Aus ATC (RADAR)
Thu 06:08:16 PM -33.7650 153.2140 230° Southwest 420 483 35,000 -1,886 Descending FlightAware ADS-B
Thu 06:08:48 PM -33.8118 153.1537 230° Southwest 412 474 34,000 -1,962 Descending Aus ATC (RADAR)
Thu 06:09:08 PM -33.8340 153.1220 230° Southwest 408 470 33,300 -1,881 Descending FlightAware ADS-B
Thu 06:09:55 PM -33.8890 153.0470 230° Southwest 400 460 31,900 -1,969 Descending FlightAware ADS-B
Thu 06:10:12 PM -33.9164 153.0107 230° Southwest 395 455 31,200 -1,957 Descending Aus ATC (RADAR)
Thu 06:10:41 PM -33.9470 152.9690 230° Southwest 389 448 30,400 -1,733 Descending FlightAware ADS-B
Thu 06:10:57 PM -33.9700 152.9376 230° Southwest 386 444 29,900 -1,826 Descending Aus ATC (RADAR)
Thu 06:11:27 PM -34.0033 152.8922 230° Southwest 385 443 29,000 -1,463 Descending Aus ATC (RADAR)
Thu 06:11:38 PM -34.0120 152.8790 240° Southwest 376 433 28,900 -1,286 Descending FlightAware ADS-B
Thu 06:11:55 PM -34.0298 152.8377 240° Southwest 390 449 28,400 -1,667 Descending Aus ATC (RADAR)
Thu 06:12:14 PM -34.0300 152.8110 252° West 353 406 27,900 -1,714 Descending FlightAware ADS-B
Thu 06:13:05 PM -34.0511 152.7065 252° West 342 394 26,400 -1,647 Descending Aus ATC (RADAR)
Thu 06:13:05 PM -34.0490 152.7130 252° West 343 395 26,500 -1,500 Climbing FlightAware ADS-B
Thu 06:13:45 PM -34.0650 152.6420 255° West 335 386 25,400 -1,794 Descending FlightAware ADS-B
Thu 06:14:42 PM -34.0789 152.5309 261° West 320 368 23,600 -1,723 Descending FlightAware ADS-B
Thu 06:15:19 PM -34.0726 152.4648 261° West 316 364 22,700 -1,317 Descending Aus ATC (RADAR)
Thu 06:15:23 PM -34.0730 152.4670 261° West 319 367 22,700 -1,800 Level FlightAware ADS-B
Thu 06:15:59 PM -34.0663 152.3956 276° West 323 372 21,500 -1,727 Descending FlightAware ADS-B
Thu 06:16:29 PM -34.0617 152.3407 276° West 316 364 20,800 -1,622 Descending Aus ATC (RADAR)
Thu 06:16:36 PM -34.0601 152.3301 276° West 316 364 20,500 -1,622 Descending FlightAware ADS-B
Thu 06:17:06 PM -34.0553 152.2769 276° West 308 354 19,800 -1,543 Descending Aus ATC (RADAR)
Thu 06:17:11 PM -34.0542 152.2682 276° West 313 360 19,600 -1,700 Descending FlightAware ADS-B
Thu 06:18:06 PM -34.0450 152.1743 277° West 304 350 18,100 -1,563 Descending FlightAware ADS-B
Thu 06:18:47 PM -34.0383 152.1081 277° West 294 338 17,100 -1,532 Descending Aus ATC (RADAR)
Thu 06:18:53 PM -34.0375 152.0972 277° West 300 345 16,900 -1,459 Descending FlightAware ADS-B
Thu 06:19:24 PM -34.0329 152.0448 277° West 295 339 16,200 -1,941 Descending Aus ATC (RADAR)
Thu 06:19:27 PM -34.0320 152.0406 277° West 292 336 15,800 -1,765 Descending FlightAware ADS-B
Thu 06:19:58 PM -34.0272 151.9913 277° West 290 334 15,200 -1,268 Descending FlightAware ADS-B
Thu 06:20:38 PM -34.0208 151.9283 277° West 284 327 14,300 -1,459 Descending FlightAware ADS-B
Thu 06:21:12 PM -34.0163 151.8834 277° West 280 322 13,400 -1,500 Descending FlightAware ADS-B
Thu 06:21:46 PM -34.0137 151.8581 277° West 276 318 12,600 -1,378 Descending FlightAware ADS-B
Thu 06:22:26 PM -34.0103 151.8247 277° West 270 311 11,700 -1,371 Descending FlightAware ADS-B
Thu 06:22:56 PM -33.9995 151.7175 277° West 269 310 11,000 -1,574 Descending FlightAware ADS-B
Thu 06:23:27 PM -33.9948 151.6730 277° West 267 307 10,100 -1,404 Descending FlightAware ADS-B
Thu 06:23:43 PM -33.9925 151.6513 277° West 265 305 9,900 -1,412 Descending FlightAware ADS-B
Thu 06:24:01 PM -33.9897 151.6236 277° West 262 302 9,300 -1,429 Descending FlightAware ADS-B
Thu 06:24:25 PM -33.9869 151.5965 277° West 258 297 8,900 -878 Descending FlightAware ADS-B
Thu 06:24:42 PM -33.9840 151.5710 278° West 259 298 8,700 -923 Descending FlightAware ADS-B
Thu 06:24:51 PM -33.9774 151.5521 293° West 263 303 8,500 -1,286 Descending FlightAware ADS-B
Thu 06:24:56 PM -33.9736 151.5466 310° West 264 304 8,400 -545 Descending FlightAware ADS-B
Thu 06:25:02 PM -33.9708 151.5435 317° Northwest 266 306 8,400 -774 Level FlightAware ADS-B
Thu 06:25:27 PM -33.9439 151.5186 322° Northwest 269 310 8,000 -800 Descending FlightAware ADS-B
Thu 06:25:32 PM -33.9392 151.5142 322° Northwest 268 308 8,000 -720 Level FlightAware ADS-B
Thu 06:25:52 PM -33.9192 151.4958 323° Northwest 264 304 7,700 -857 Descending FlightAware ADS-B
Thu 06:26:07 PM -33.9050 151.4828 323° Northwest 266 306 7,500 -750 Descending FlightAware ADS-B
Thu 06:26:24 PM -33.8899 151.4692 323° Northwest 267 307 7,300 -600 Descending FlightAware ADS-B
Thu 06:26:47 PM -33.8660 151.4476 323° Northwest 264 304 7,100 -900 Descending FlightAware ADS-B
Thu 06:27:04 PM -33.8487 151.4321 323° Northwest 263 303 6,700 -900 Descending FlightAware ADS-B
Thu 06:27:27 PM -33.8274 151.4128 323° Northwest 264 304 6,500 -698 Descending FlightAware ADS-B
Thu 06:27:47 PM -33.8097 151.3969 323° Northwest 263 303 6,200 -923 Descending FlightAware ADS-B
Thu 06:28:06 PM -33.7893 151.3784 323° Northwest 261 300 5,900 -750 Descending FlightAware ADS-B
Thu 06:28:27 PM -33.7691 151.3603 323° Northwest 262 302 5,700 -732 Descending FlightAware ADS-B
Thu 06:28:47 PM -33.7529 151.3455 323° Northwest 256 295 5,400 -968 Descending FlightAware ADS-B
Thu 06:28:58 PM -33.7386 151.3321 322° Northwest 255 293 5,200 -1,200 Descending FlightAware ADS-B
Thu 06:29:07 PM -33.7317 151.3232 313° West 254 292 5,000 -1,263 Descending FlightAware ADS-B
Thu 06:29:17 PM -33.7266 151.3107 296° West 254 292 4,800 -1,400 Descending FlightAware ADS-B
Thu 06:29:37 PM -33.7216 151.2835 283° West 251 289 4,300 -1,500 Descending FlightAware ADS-B
Thu 06:29:53 PM -33.7178 151.2631 282° West 242 278 3,900 -1,161 Descending FlightAware ADS-B
Thu 06:30:08 PM -33.7139 151.2424 283° West 237 273 3,700 -783 Descending FlightAware ADS-B
Thu 06:30:16 PM -33.7131 151.2353 278° West 236 272 3,600 -828 Descending FlightAware ADS-B
Thu 06:30:37 PM -33.7189 151.2102 254° West 224 258 3,300 -923 Descending FlightAware ADS-B
Thu 06:30:55 PM -33.7286 151.1871 243° Southwest 215 247 3,000 -600 Descending FlightAware ADS-B
Thu 06:31:07 PM -33.7344 151.1757 238° Southwest 209 241 3,000 -286 Level FlightAware ADS-B
Thu 06:31:16 PM -33.7405 151.1699 219° Southwest 202 232 2,900 -400 Descending FlightAware ADS-B
Thu 06:31:37 PM -33.7553 151.1631 201° Southwest 192 221 2,800 -316 Descending FlightAware ADS-B
Thu 06:31:54 PM -33.7729 151.1560 198° South 179 206 2,700 -474 Descending FlightAware ADS-B
Thu 06:32:15 PM -33.7896 151.1511 194° South 172 198 2,500 -364 Descending FlightAware ADS-B
Thu 06:32:27 PM -33.7985 151.1510 181° South 172 198 2,500 -188 Level FlightAware ADS-B
Thu 06:32:47 PM -33.8146 151.1532 173° South 170 196 2,400 -300 Descending FlightAware ADS-B
Thu 06:33:07 PM -33.8299 151.1569 169° South 168 193 2,300 -450 Descending FlightAware ADS-B
Thu 06:33:27 PM -33.8448 151.1610 167° South 160 184 2,100 -750 Descending FlightAware ADS-B
Thu 06:33:47 PM -33.8573 151.1643 167° South 152 175 1,800 -900 Descending FlightAware ADS-B
Thu 06:34:07 PM -33.8712 151.1679 168° South 146 168 1,500 -833 Descending FlightAware ADS-B
Thu 06:34:23 PM -33.8782 151.1699 167° South 149 171 1,300 -882 Descending FlightAware ADS-B
Thu 06:34:41 PM -33.8952 151.1742 168° South 148 170 1,000 -727 Descending FlightAware ADS-B
Thu 06:34:56 PM -33.9048 151.1766 168° South 146 168 900 -774 Descending FlightAware ADS-B
Thu 06:35:12 PM -33.9157 151.1795 168° South 146 168 600 -769 Descending FlightAware ADS-B
Thu 06:35:35 PM -33.9290 151.1829 168° South 145 167 400 -522 Descending FlightAware ADS-B
Thu 06:36:18 PM -33.9570 151.1900 168° South 131 151 -558 Descending FlightAware ADS-B

Login

Don't have an account? Register now (free) for customized features, flight alerts, and more!